Time;durP1;ratioP1;P1;durP2;ratioP2;P2;SDS_P1;SDS_P2;PMS_P1;PMS_P2;Temp;Humidity;BMP_temperature;BMP_pressure;BME280_temperature;BME280_humidity;BME280_pressure;Samples;Min_cycle;Max_cycle;Signal;HPM_P1;HPM_P2
2022/10/28 00:01:34;;;;;;;4.53;3.03;;;;;;;;;;5070048;28;20112;-78
2022/10/28 00:04:00;;;;;;;5.40;3.28;;;;;;;;;;5073727;28;20056;-79
2022/10/28 00:06:30;;;;;;;5.53;3.30;;;;;;;;;;5069657;28;20020;-79
2022/10/28 00:08:56;;;;;;;4.28;3.30;;;;;;;;;;5070085;28;20024;-79
2022/10/28 00:11:24;;;;;;;7.82;3.55;;;;;;;;;;5069799;28;20035;-79
2022/10/28 00:13:53;;;;;;;3.78;3.28;;;;;;;;;;5069657;28;20032;-79
2022/10/28 00:16:22;;;;;;;4.72;3.05;;;;;;;;;;5070042;28;20439;-79
2022/10/28 00:18:47;;;;;;;3.23;2.93;;;;;;;;;;5069756;28;20021;-79
2022/10/28 00:21:19;;;;;;;4.10;3.03;;;;;;;;;;5066098;28;20053;-79
2022/10/28 00:23:45;;;;;;;4.88;3.40;;;;;;;;;;5056132;28;20505;-79
2022/10/28 00:26:31;;;;;;;4.05;3.15;;;;;;;;;;5056313;28;20025;-79
2022/10/28 00:29:05;;;;;;;3.20;2.80;;;;;;;;;;5055964;28;20021;-78
2022/10/28 00:31:32;;;;;;;4.60;2.90;;;;;;;;;;5056943;28;20517;-77
2022/10/28 00:33:59;;;;;;;3.80;2.97;;;;;;;;;;5064596;28;20108;-78
2022/10/28 00:36:30;;;;;;;4.90;3.03;;;;;;;;;;5065314;28;20021;-78
2022/10/28 00:38:57;;;;;;;4.78;3.13;;;;;;;;;;5064523;28;20111;-78
2022/10/28 00:55:43;;;;;;;6.55;3.20;;;;;;;;;;5090787;28;20378;-79
2022/10/28 00:58:10;;;;;;;5.30;3.60;;;;;;;;;;5090873;28;20425;-79
2022/10/28 01:00:35;;;;;;;4.50;2.95;;;;;;;;;;5090835;28;20048;-79
2022/10/28 01:03:01;;;;;;;4.75;2.83;;;;;;;;;;5090883;28;20478;-79
2022/10/28 01:05:30;;;;;;;4.82;2.97;;;;;;;;;;5090739;28;20403;-79
2022/10/28 01:07:58;;;;;;;5.60;3.53;;;;;;;;;;5091284;28;20030;-79
2022/10/28 01:10:37;;;;;;;4.17;3.77;;;;;;;;;;5091041;28;20601;-79
2022/10/28 01:13:26;;;;;;;4.25;3.15;;;;;;;;;;5090620;28;20099;-79
2022/10/28 01:15:52;;;;;;;;;;;;;;;;;;5091087;28;20028;-78
2022/10/28 01:18:31;;;;;;;4.07;2.92;;;;;;;;;;5090828;28;20007;-78
2022/10/28 01:21:18;;;;;;;4.93;2.80;;;;;;;;;;5089257;28;20078;-78
2022/10/28 01:24:05;;;;;;;4.45;3.25;;;;;;;;;;5089044;28;20032;-78
2022/10/28 01:27:31;;;;;;;4.95;3.60;;;;;;;;;;5090504;28;20429;-78
2022/10/28 01:30:07;;;;;;;6.35;3.40;;;;;;;;;;5011478;28;20517;-78
2022/10/28 01:32:57;;;;;;;4.32;3.30;;;;;;;;;;5079054;28;20051;-79
2022/10/28 01:35:51;;;;;;;5.68;3.45;;;;;;;;;;5090193;28;20487;-78
2022/10/28 01:38:43;;;;;;;5.70;3.47;;;;;;;;;;5090343;28;20489;-79
2022/10/28 01:41:43;;;;;;;5.28;3.38;;;;;;;;;;5088951;28;20016;-79
2022/10/28 01:44:24;;;;;;;4.68;3.80;;;;;;;;;;5089168;28;20052;-79
2022/10/28 01:47:23;;;;;;;4.43;3.53;;;;;;;;;;5089985;28;20031;-79
2022/10/28 01:49:57;;;;;;;;;;;;;;;;;;5080422;28;20040;-79
2022/10/28 01:52:25;;;;;;;3.88;3.00;;;;;;;;;;5089737;28;20374;-79
2022/10/28 01:54:57;;;;;;;4.60;2.80;;;;;;;;;;5085961;28;20052;-79
2022/10/28 01:57:24;;;;;;;2.90;2.70;;;;;;;;;;5076313;28;20028;-79
2022/10/28 01:59:51;;;;;;;5.80;3.20;;;;;;;;;;5075166;28;20024;-79
2022/10/28 02:02:17;;;;;;;3.58;2.95;;;;;;;;;;5076104;28;20051;-79
2022/10/28 02:04:42;;;;;;;5.72;3.15;;;;;;;;;;5076214;28;20067;-79
2022/10/28 02:07:08;;;;;;;6.13;3.78;;;;;;;;;;5076261;28;20479;-79
2022/10/28 02:09:54;;;;;;;6.90;3.35;;;;;;;;;;5076196;28;20050;-80
2022/10/28 02:12:33;;;;;;;5.65;3.50;;;;;;;;;;5076123;28;20020;-79
2022/10/28 02:15:01;;;;;;;3.90;3.50;;;;;;;;;;5075858;28;20024;-80
2022/10/28 02:17:49;;;;;;;4.78;3.28;;;;;;;;;;5076067;28;20077;-80
2022/10/28 02:20:25;;;;;;;9.18;3.90;;;;;;;;;;5075895;28;20383;-80
2022/10/28 02:23:02;;;;;;;4.03;3.10;;;;;;;;;;5075765;28;20051;-80
2022/10/28 02:25:37;;;;;;;6.05;3.70;;;;;;;;;;5075692;28;20483;-79
2022/10/28 02:28:14;;;;;;;4.53;3.45;;;;;;;;;;5075748;28;20039;-80
2022/10/28 02:30:52;;;;;;;4.45;3.33;;;;;;;;;;5075903;28;20083;-80
2022/10/28 02:33:22;;;;;;;4.15;3.60;;;;;;;;;;5075892;28;20059;-79
2022/10/28 02:35:53;;;;;;;4.40;4.00;;;;;;;;;;5075527;28;20028;-80
2022/10/28 02:38:24;;;;;;;4.88;3.55;;;;;;;;;;5075915;28;20370;-79
2022/10/28 02:40:54;;;;;;;4.35;3.80;;;;;;;;;;5075771;28;20218;-79
2022/10/28 02:43:22;;;;;;;6.10;3.70;;;;;;;;;;5075507;28;20107;-79
2022/10/28 02:45:51;;;;;;;4.30;3.40;;;;;;;;;;5075342;28;20036;-79
2022/10/28 02:48:35;;;;;;;;;;;;;;;;;;5075751;28;20028;-79
2022/10/28 02:51:09;;;;;;;6.35;3.70;;;;;;;;;;5075296;28;19916;-79
2022/10/28 02:53:58;;;;;;;4.68;3.80;;;;;;;;;;5075198;28;20579;-79
2022/10/28 02:56:23;;;;;;;3.78;2.63;;;;;;;;;;5075169;28;20422;-79
2022/10/28 02:58:49;;;;;;;6.38;3.55;;;;;;;;;;5075587;28;20028;-79
2022/10/28 03:01:15;;;;;;;5.85;3.17;;;;;;;;;;5075186;28;20067;-79
2022/10/28 03:03:40;;;;;;;3.60;2.80;;;;;;;;;;5075015;28;20031;-79
2022/10/28 03:06:06;;;;;;;4.40;3.28;;;;;;;;;;5075169;28;20071;-79
2022/10/28 03:08:31;;;;;;;4.40;3.00;;;;;;;;;;5074378;28;20029;-79
2022/10/28 03:10:57;;;;;;;8.07;3.10;;;;;;;;;;5074984;28;20036;-79
2022/10/28 03:13:22;;;;;;;8.65;3.47;;;;;;;;;;5074743;28;20082;-79
2022/10/28 03:15:48;;;;;;;4.30;3.30;;;;;;;;;;5074729;28;20481;-79
2022/10/28 03:18:13;;;;;;;3.17;2.88;;;;;;;;;;5075174;28;20031;-79
2022/10/28 03:20:39;;;;;;;4.57;3.78;;;;;;;;;;5074686;28;20060;-79
2022/10/28 03:23:04;;;;;;;4.55;2.95;;;;;;;;;;5074645;28;20111;-79
2022/10/28 03:25:29;;;;;;;4.13;3.00;;;;;;;;;;5074561;28;20029;-79
2022/10/28 03:27:55;;;;;;;3.63;2.80;;;;;;;;;;5074620;28;20029;-79
2022/10/28 03:30:20;;;;;;;3.55;3.25;;;;;;;;;;5074394;28;20017;-80
2022/10/28 03:32:46;;;;;;;5.90;3.10;;;;;;;;;;5074532;28;20039;-79
2022/10/28 03:35:11;;;;;;;3.50;3.00;;;;;;;;;;5073106;28;20071;-79
2022/10/28 03:37:40;;;;;;;4.45;3.20;;;;;;;;;;5074697;28;20024;-80
2022/10/28 03:40:06;;;;;;;3.63;2.65;;;;;;;;;;5074258;28;20024;-79
2022/10/28 03:42:32;;;;;;;3.67;2.88;;;;;;;;;;5074404;28;20036;-79
2022/10/28 03:44:58;;;;;;;4.55;2.92;;;;;;;;;;5074213;28;20039;-79
2022/10/28 03:47:24;;;;;;;3.92;3.50;;;;;;;;;;5074220;28;20047;-80
2022/10/28 03:49:49;;;;;;;3.72;3.08;;;;;;;;;;5074051;28;20032;-80
2022/10/28 03:52:15;;;;;;;4.28;3.17;;;;;;;;;;5073084;28;20459;-79
2022/10/28 03:54:40;;;;;;;3.20;2.90;;;;;;;;;;5073933;28;20491;-79
2022/10/28 03:57:05;;;;;;;4.88;2.65;;;;;;;;;;5073940;28;20101;-79
2022/10/28 03:59:31;;;;;;;5.57;2.75;;;;;;;;;;5073952;28;20020;-79
2022/10/28 04:01:56;;;;;;;5.00;3.20;;;;;;;;;;5074029;28;20107;-79
2022/10/28 04:04:22;;;;;;;4.68;3.47;;;;;;;;;;5073861;28;20463;-79
2022/10/28 04:06:47;;;;;;;4.22;2.75;;;;;;;;;;5074038;28;20032;-79
2022/10/28 04:09:12;;;;;;;4.90;3.20;;;;;;;;;;5074138;28;20016;-79
2022/10/28 04:11:38;;;;;;;6.00;3.30;;;;;;;;;;5074091;28;20366;-79
2022/10/28 04:14:03;;;;;;;5.28;2.92;;;;;;;;;;5074290;28;20523;-79
2022/10/28 04:16:29;;;;;;;6.00;3.00;;;;;;;;;;5073718;28;20012;-79
2022/10/28 04:18:54;;;;;;;4.15;3.20;;;;;;;;;;5073803;28;20024;-79
2022/10/28 04:21:20;;;;;;;5.03;3.15;;;;;;;;;;5073950;28;20021;-79
2022/10/28 04:23:45;;;;;;;3.78;3.25;;;;;;;;;;5073659;28;20032;-79
2022/10/28 04:26:11;;;;;;;5.30;2.90;;;;;;;;;;5073637;28;20028;-79
2022/10/28 04:28:36;;;;;;;4.47;2.97;;;;;;;;;;5073963;28;20016;-79
2022/10/28 04:31:02;;;;;;;3.03;2.70;;;;;;;;;;5073836;28;20020;-77
2022/10/28 04:33:28;;;;;;;4.80;2.88;;;;;;;;;;5073616;28;20471;-79
2022/10/28 04:35:53;;;;;;;3.65;3.15;;;;;;;;;;5073691;28;20040;-79
2022/10/28 04:38:19;;;;;;;7.68;3.67;;;;;;;;;;5073641;28;20106;-78
2022/10/28 04:40:48;;;;;;;5.50;3.90;;;;;;;;;;5073696;28;20036;-79
2022/10/28 04:43:13;;;;;;;6.03;3.22;;;;;;;;;;5072610;28;20066;-79
2022/10/28 04:45:40;;;;;;;3.33;2.88;;;;;;;;;;5073550;28;20033;-78
2022/10/28 04:48:08;;;;;;;4.03;3.20;;;;;;;;;;5073975;28;20059;-80
2022/10/28 04:50:34;;;;;;;3.83;3.00;;;;;;;;;;5073854;28;20025;-80
2022/10/28 04:52:59;;;;;;;3.55;2.80;;;;;;;;;;5073395;28;20418;-80
2022/10/28 04:55:25;;;;;;;6.85;3.00;;;;;;;;;;5073119;28;20041;-80
2022/10/28 04:57:57;;;;;;;3.65;2.75;;;;;;;;;;5072138;28;20024;-80
2022/10/28 05:00:24;;;;;;;5.65;3.20;;;;;;;;;;5073413;28;20471;-79
2022/10/28 05:02:50;;;;;;;3.95;2.97;;;;;;;;;;5073275;28;20100;-80
2022/10/28 05:05:16;;;;;;;3.63;2.80;;;;;;;;;;5073234;28;20055;-80
2022/10/28 05:07:41;;;;;;;3.35;2.72;;;;;;;;;;5073163;28;20020;-79
2022/10/28 05:10:07;;;;;;;5.70;3.33;;;;;;;;;;5071837;28;20109;-79
2022/10/28 05:12:33;;;;;;;3.97;2.95;;;;;;;;;;5073206;28;20103;-80
2022/10/28 05:14:58;;;;;;;4.68;2.83;;;;;;;;;;5073154;28;20423;-80
2022/10/28 05:17:24;;;;;;;6.40;3.15;;;;;;;;;;5073090;28;20043;-79
2022/10/28 05:19:49;;;;;;;3.85;3.10;;;;;;;;;;5073081;28;20027;-79
2022/10/28 05:22:15;;;;;;;6.25;2.95;;;;;;;;;;5072055;28;20090;-79
2022/10/28 05:24:40;;;;;;;3.80;2.90;;;;;;;;;;5072780;28;20028;-79
2022/10/28 05:27:06;;;;;;;5.30;3.17;;;;;;;;;;5073073;28;20150;-80
2022/10/28 05:29:31;;;;;;;4.35;3.00;;;;;;;;;;5073177;28;20078;-80
2022/10/28 05:31:57;;;;;;;4.00;3.33;;;;;;;;;;5076541;28;20032;-80
2022/10/28 05:34:22;;;;;;;4.65;3.17;;;;;;;;;;5076955;28;20032;-80
2022/10/28 05:36:49;;;;;;;5.70;2.95;;;;;;;;;;5076702;28;20070;-80
2022/10/28 05:39:15;;;;;;;4.03;3.13;;;;;;;;;;5076776;28;20029;-79
2022/10/28 05:41:41;;;;;;;3.65;3.00;;;;;;;;;;5076822;28;20099;-79
2022/10/28 05:44:06;;;;;;;4.07;3.00;;;;;;;;;;5068100;28;20088;-79
2022/10/28 05:46:32;;;;;;;5.55;2.90;;;;;;;;;;5067356;28;20104;-80
2022/10/28 05:48:57;;;;;;;4.22;3.13;;;;;;;;;;5056645;28;20052;-78
2022/10/28 05:51:23;;;;;;;4.72;3.40;;;;;;;;;;5057835;28;20529;-79
2022/10/28 05:53:50;;;;;;;5.43;3.00;;;;;;;;;;5074804;28;20044;-79
2022/10/28 05:56:16;;;;;;;4.38;3.30;;;;;;;;;;5070923;28;20503;-80
2022/10/28 05:58:41;;;;;;;4.20;3.17;;;;;;;;;;5066382;28;20029;-80
2022/10/28 06:01:07;;;;;;;5.35;3.38;;;;;;;;;;5064730;28;20040;-79
2022/10/28 06:03:33;;;;;;;6.35;3.50;;;;;;;;;;5066550;28;20023;-80
2022/10/28 06:05:59;;;;;;;4.18;3.40;;;;;;;;;;5065509;28;20025;-81
2022/10/28 06:08:24;;;;;;;5.75;3.20;;;;;;;;;;5065003;28;20021;-78
2022/10/28 06:10:51;;;;;;;3.50;2.92;;;;;;;;;;5066643;28;20055;-79
2022/10/28 06:13:17;;;;;;;3.90;3.10;;;;;;;;;;5064163;28;20112;-80
2022/10/28 06:15:42;;;;;;;7.93;3.85;;;;;;;;;;5065155;28;20104;-80
2022/10/28 06:18:08;;;;;;;6.38;3.88;;;;;;;;;;5066486;28;20021;-78
2022/10/28 06:20:33;;;;;;;4.80;4.07;;;;;;;;;;5063423;28;20013;-78
2022/10/28 06:22:59;;;;;;;5.88;4.03;;;;;;;;;;5065375;28;20541;-77
2022/10/28 06:25:25;;;;;;;4.75;3.60;;;;;;;;;;5066108;28;20021;-78
2022/10/28 06:27:55;;;;;;;4.47;3.60;;;;;;;;;;5064260;28;20020;-78
2022/10/28 06:30:21;;;;;;;6.05;3.88;;;;;;;;;;5065039;28;20024;-78
2022/10/28 06:32:46;;;;;;;5.53;3.17;;;;;;;;;;5066129;28;20375;-79
2022/10/28 06:35:12;;;;;;;6.03;2.90;;;;;;;;;;5064024;28;20415;-78
2022/10/28 06:37:37;;;;;;;3.85;3.40;;;;;;;;;;5065977;28;20039;-78
2022/10/28 06:40:03;;;;;;;5.65;3.63;;;;;;;;;;5065352;28;20033;-78
2022/10/28 06:42:29;;;;;;;5.93;3.35;;;;;;;;;;5062614;28;20024;-78
2022/10/28 06:44:54;;;;;;;5.13;3.80;;;;;;;;;;5065785;28;20032;-78
2022/10/28 06:47:20;;;;;;;7.50;4.05;;;;;;;;;;5065053;28;20021;-79
2022/10/28 06:49:45;;;;;;;6.35;3.85;;;;;;;;;;5064350;28;20025;-87
2022/10/28 06:52:11;;;;;;;6.70;3.70;;;;;;;;;;5072828;28;20111;-80
2022/10/28 06:54:36;;;;;;;4.60;3.40;;;;;;;;;;5075581;28;20063;-83
2022/10/28 06:57:01;;;;;;;6.15;3.22;;;;;;;;;;5075512;28;20498;-88
2022/10/28 06:59:27;;;;;;;5.20;3.38;;;;;;;;;;5075368;28;20028;-86
2022/10/28 07:01:52;;;;;;;4.93;3.08;;;;;;;;;;5074272;28;20031;-82
2022/10/28 07:04:18;;;;;;;6.72;3.55;;;;;;;;;;5064454;28;20021;-83
2022/10/28 07:06:43;;;;;;;6.00;3.53;;;;;;;;;;5075024;28;20055;-80
2022/10/28 07:09:12;;;;;;;5.13;3.45;;;;;;;;;;5075602;28;20095;-80
2022/10/28 07:11:38;;;;;;;6.80;3.38;;;;;;;;;;5073573;28;20513;-81
2022/10/28 07:14:03;;;;;;;7.03;3.63;;;;;;;;;;5074435;28;20060;-80
2022/10/28 07:16:29;;;;;;;5.53;3.28;;;;;;;;;;5074376;28;20024;-78
2022/10/28 07:18:54;;;;;;;6.10;3.35;;;;;;;;;;5074624;28;20459;-78
2022/10/28 07:21:23;;;;;;;5.75;3.20;;;;;;;;;;5074529;28;20032;-78
2022/10/28 07:23:48;;;;;;;7.38;3.42;;;;;;;;;;5074496;28;20036;-78
2022/10/28 07:26:14;;;;;;;4.93;3.50;;;;;;;;;;5074461;28;20025;-79
2022/10/28 07:28:41;;;;;;;4.53;3.33;;;;;;;;;;5074626;28;20025;-79
2022/10/28 07:31:07;;;;;;;6.80;3.42;;;;;;;;;;5074152;28;20117;-78
2022/10/28 07:33:32;;;;;;;3.30;3.00;;;;;;;;;;5074348;28;20056;-78
2022/10/28 07:35:58;;;;;;;5.13;3.15;;;;;;;;;;5074217;28;20048;-77
2022/10/28 07:38:23;;;;;;;5.82;3.20;;;;;;;;;;5074198;28;20031;-77
2022/10/28 07:40:49;;;;;;;3.95;3.20;;;;;;;;;;5074390;28;20051;-78
2022/10/28 07:43:14;;;;;;;5.22;3.40;;;;;;;;;;5074005;28;20086;-78
2022/10/28 07:45:39;;;;;;;4.68;3.20;;;;;;;;;;5074134;28;20155;-80
2022/10/28 07:48:06;;;;;;;6.68;3.00;;;;;;;;;;5065440;28;20060;-79
2022/10/28 07:50:31;;;;;;;4.65;2.80;;;;;;;;;;5071093;28;20056;-79
2022/10/28 07:52:57;;;;;;;4.28;3.60;;;;;;;;;;5064747;28;20431;-80
2022/10/28 07:55:22;;;;;;;6.13;3.70;;;;;;;;;;5067418;28;20064;-80
2022/10/28 07:57:48;;;;;;;5.43;3.08;;;;;;;;;;5065553;28;20028;-79
2022/10/28 08:00:14;;;;;;;4.68;2.92;;;;;;;;;;5057740;28;20079;-79
2022/10/28 08:02:39;;;;;;;3.45;2.78;;;;;;;;;;5055936;28;20021;-79
2022/10/28 08:05:05;;;;;;;4.68;3.03;;;;;;;;;;5052393;28;20036;-78
2022/10/28 08:07:31;;;;;;;5.13;2.78;;;;;;;;;;5059032;28;20352;-86
2022/10/28 08:09:57;;;;;;;3.28;2.50;;;;;;;;;;5070692;28;20021;-83
2022/10/28 08:12:23;;;;;;;4.47;2.47;;;;;;;;;;5070943;28;20024;-82
2022/10/28 08:14:48;;;;;;;3.75;2.92;;;;;;;;;;5065230;28;20028;-78
2022/10/28 08:17:14;;;;;;;4.07;2.80;;;;;;;;;;5061349;28;20031;-79
2022/10/28 08:19:39;;;;;;;5.82;3.08;;;;;;;;;;5073585;28;20028;-80
2022/10/28 08:22:05;;;;;;;5.25;2.97;;;;;;;;;;5073456;28;20082;-81
2022/10/28 08:24:31;;;;;;;6.68;2.72;;;;;;;;;;5064724;28;20033;-80
2022/10/28 08:26:57;;;;;;;7.25;2.88;;;;;;;;;;5053778;28;20075;-79
2022/10/28 08:29:22;;;;;;;5.28;2.88;;;;;;;;;;5063639;28;20099;-81
2022/10/28 08:31:48;;;;;;;3.58;2.80;;;;;;;;;;5073460;28;20032;-78
2022/10/28 08:34:13;;;;;;;3.95;2.72;;;;;;;;;;5059319;28;20021;-82
2022/10/28 08:36:38;;;;;;;6.30;3.40;;;;;;;;;;5059213;28;20379;-79
2022/10/28 08:39:04;;;;;;;8.05;3.00;;;;;;;;;;5056002;28;20052;-80
2022/10/28 08:41:29;;;;;;;5.15;2.72;;;;;;;;;;5053685;28;20028;-80
2022/10/28 08:44:16;;;;;;;5.25;3.10;;;;;;;;;;5053516;28;20025;-80
2022/10/28 08:47:14;;;;;;;4.88;2.80;;;;;;;;;;5053181;28;20364;-80
2022/10/28 08:49:41;;;;;;;3.35;2.40;;;;;;;;;;5053599;28;20021;-80
2022/10/28 08:52:15;;;;;;;5.57;2.90;;;;;;;;;;5053342;28;20029;-80
2022/10/28 08:54:49;;;;;;;6.22;3.13;;;;;;;;;;5051740;28;20055;-80
2022/10/28 08:57:20;;;;;;;5.32;2.72;;;;;;;;;;5055287;28;20036;-80
2022/10/28 08:59:49;;;;;;;4.10;3.20;;;;;;;;;;5073322;28;20031;-80
2022/10/28 09:02:23;;;;;;;4.47;2.85;;;;;;;;;;5073255;28;20541;-79
2022/10/28 09:05:19;;;;;;;4.75;3.30;;;;;;;;;;5068932;28;20366;-80
2022/10/28 09:07:44;;;;;;;7.32;3.50;;;;;;;;;;5070628;28;20455;-80
2022/10/28 09:10:14;;;;;;;4.38;3.25;;;;;;;;;;5077469;28;20028;-80
2022/10/28 09:13:01;;;;;;;5.47;3.33;;;;;;;;;;5077258;28;20095;-79
2022/10/28 09:16:11;;;;;;;5.57;2.92;;;;;;;;;;5077134;28;20036;-80
2022/10/28 09:18:51;;;;;;;3.55;2.60;;;;;;;;;;5076539;28;20119;-80
2022/10/28 09:21:44;;;;;;;5.53;3.10;;;;;;;;;;5073947;28;20036;-78
2022/10/28 09:24:26;;;;;;;3.13;2.72;;;;;;;;;;5072137;28;20089;-80
2022/10/28 09:27:04;;;;;;;3.10;2.70;;;;;;;;;;5076880;28;20025;-80
2022/10/28 09:30:01;;;;;;;4.97;2.47;;;;;;;;;;5076819;28;20086;-77
2022/10/28 09:32:38;;;;;;;4.93;3.00;;;;;;;;;;5073256;28;20029;-78
2022/10/28 09:35:16;;;;;;;4.90;2.83;;;;;;;;;;5061663;28;20046;-78
2022/10/28 09:37:58;;;;;;;5.38;2.90;;;;;;;;;;5055393;28;20051;-78
2022/10/28 09:40:27;;;;;;;4.68;2.83;;;;;;;;;;5056567;28;20017;-77
2022/10/28 09:42:58;;;;;;;;;;;;;;;;;;5056833;28;20040;-78
2022/10/28 09:45:28;;;;;;;3.80;3.05;;;;;;;;;;5056511;28;19912;-78
2022/10/28 09:48:01;;;;;;;4.00;2.80;;;;;;;;;;5056570;28;20525;-78
2022/10/28 09:50:31;;;;;;;3.67;2.75;;;;;;;;;;5056349;28;20448;-78
2022/10/28 09:53:28;;;;;;;4.50;2.85;;;;;;;;;;5056318;28;20028;-78
2022/10/28 09:55:54;;;;;;;4.50;2.65;;;;;;;;;;5056225;28;20041;-88
2022/10/28 09:58:20;;;;;;;5.05;2.88;;;;;;;;;;5056455;28;20490;-81
2022/10/28 10:00:45;;;;;;;2.95;2.67;;;;;;;;;;5056270;28;20025;-81
2022/10/28 10:03:11;;;;;;;3.58;2.92;;;;;;;;;;5065007;28;20129;-81
2022/10/28 10:05:42;;;;;;;5.78;2.95;;;;;;;;;;5066735;28;20032;-82
2022/10/28 10:08:12;;;;;;;5.55;2.75;;;;;;;;;;5067686;28;20045;-81
2022/10/28 10:11:03;;;;;;;5.25;2.70;;;;;;;;;;5067610;28;20025;-81
2022/10/28 10:13:35;;;;;;;3.65;2.60;;;;;;;;;;5075939;28;20086;-80
2022/10/28 10:16:12;;;;;;;5.90;2.92;;;;;;;;;;5075303;28;20032;-81
2022/10/28 10:18:45;;;;;;;4.68;2.40;;;;;;;;;;5075599;28;20036;-87
2022/10/28 10:21:11;;;;;;;5.00;2.55;;;;;;;;;;5064321;28;20029;-79
2022/10/28 10:23:37;;;;;;;2.95;2.65;;;;;;;;;;5055919;28;20379;-78
2022/10/28 10:26:10;;;;;;;4.00;2.60;;;;;;;;;;5054437;28;20388;-77
2022/10/28 10:28:41;;;;;;;5.05;2.67;;;;;;;;;;5056155;28;20044;-78
2022/10/28 10:31:15;;;;;;;4.85;2.70;;;;;;;;;;5055823;28;20025;-76
2022/10/28 10:33:40;;;;;;;4.20;2.42;;;;;;;;;;5055905;28;20434;-77
2022/10/28 10:36:08;;;;;;;3.45;2.28;;;;;;;;;;5055585;28;20175;-78
2022/10/28 10:38:35;;;;;;;4.00;2.40;;;;;;;;;;5054412;28;20025;-79
2022/10/28 10:41:00;;;;;;;5.88;2.85;;;;;;;;;;5060487;28;20028;-80
2022/10/28 10:43:26;;;;;;;4.35;2.58;;;;;;;;;;5074933;28;20028;-85
2022/10/28 10:45:51;;;;;;;3.03;2.13;;;;;;;;;;5073996;28;20066;-78
2022/10/28 10:48:17;;;;;;;3.33;2.47;;;;;;;;;;5075479;28;20027;-81
2022/10/28 10:50:46;;;;;;;3.05;2.33;;;;;;;;;;5077003;28;20031;-82
2022/10/28 10:53:29;;;;;;;4.85;2.67;;;;;;;;;;5075224;28;20054;-82
2022/10/28 10:56:09;;;;;;;3.53;2.67;;;;;;;;;;5075239;28;20082;-82
2022/10/28 10:58:47;;;;;;;2.72;2.45;;;;;;;;;;5075186;28;20021;-82
2022/10/28 11:01:18;;;;;;;4.30;2.75;;;;;;;;;;5075168;28;20032;-81
2022/10/28 11:03:50;;;;;;;2.75;2.50;;;;;;;;;;5075369;28;20040;-81
2022/10/28 11:06:31;;;;;;;4.35;2.70;;;;;;;;;;5075041;28;20033;-81
2022/10/28 11:09:01;;;;;;;3.67;2.40;;;;;;;;;;5075198;28;20029;-81
2022/10/28 11:11:37;;;;;;;3.28;2.58;;;;;;;;;;5075115;28;20172;-82
2022/10/28 11:14:05;;;;;;;3.97;2.45;;;;;;;;;;5075475;28;20039;-81
2022/10/28 11:16:31;;;;;;;4.30;2.50;;;;;;;;;;5074788;28;20028;-82
2022/10/28 11:18:57;;;;;;;2.53;2.30;;;;;;;;;;5074791;28;20025;-81
2022/10/28 11:21:49;;;;;;;3.30;2.50;;;;;;;;;;5074859;28;20368;-81
2022/10/28 11:24:36;;;;;;;2.80;2.47;;;;;;;;;;5074493;28;20029;-80
2022/10/28 11:27:23;;;;;;;3.85;2.70;;;;;;;;;;5073495;28;20502;-80
2022/10/28 11:29:49;;;;;;;3.83;2.70;;;;;;;;;;5074147;28;20079;-79
2022/10/28 11:32:52;;;;;;;3.85;2.40;;;;;;;;;;5073409;28;20486;-84
2022/10/28 11:35:27;;;;;;;2.30;2.05;;;;;;;;;;5075049;28;20055;-81
2022/10/28 11:37:58;;;;;;;4.63;2.47;;;;;;;;;;5074478;28;20031;-82
2022/10/28 11:40:31;;;;;;;4.55;2.35;;;;;;;;;;5074152;28;20035;-82
2022/10/28 11:43:15;;;;;;;3.30;2.25;;;;;;;;;;5074080;28;20556;-82
2022/10/28 11:45:43;;;;;;;2.78;2.33;;;;;;;;;;5074133;28;20032;-82
2022/10/28 11:48:23;;;;;;;6.05;2.75;;;;;;;;;;5073956;28;20034;-82
2022/10/28 11:51:03;;;;;;;2.85;2.17;;;;;;;;;;5074054;28;20466;-84
2022/10/28 11:54:06;;;;;;;3.55;2.15;;;;;;;;;;5074238;28;20487;-84
2022/10/28 11:56:44;;;;;;;3.33;2.90;;;;;;;;;;5073801;28;20044;-84
2022/10/28 11:59:34;;;;;;;4.23;2.40;;;;;;;;;;5074037;28;20052;-84
2022/10/28 12:02:14;;;;;;;3.22;2.50;;;;;;;;;;5074046;28;20107;-84
2022/10/28 12:04:39;;;;;;;3.92;2.33;;;;;;;;;;5073195;28;20032;-84
2022/10/28 12:07:17;;;;;;;3.92;2.65;;;;;;;;;;5074293;28;20031;-85
2022/10/28 12:09:57;;;;;;;4.43;3.05;;;;;;;;;;5073989;28;20037;-83
2022/10/28 12:12:37;;;;;;;4.05;2.78;;;;;;;;;;5073827;28;20024;-84
2022/10/28 12:15:14;;;;;;;3.60;2.60;;;;;;;;;;5073771;28;20079;-85
2022/10/28 12:17:42;;;;;;;2.92;2.55;;;;;;;;;;5073763;28;20398;-84
2022/10/28 12:20:24;;;;;;;3.85;2.75;;;;;;;;;;5072393;28;20027;-84
2022/10/28 12:22:53;;;;;;;3.55;2.65;;;;;;;;;;5073592;28;20383;-84
2022/10/28 12:25:26;;;;;;;3.88;2.78;;;;;;;;;;5073698;28;20107;-83
2022/10/28 12:27:57;;;;;;;3.35;2.45;;;;;;;;;;5076908;28;20068;-84
2022/10/28 12:30:29;;;;;;;2.28;2.00;;;;;;;;;;5073833;28;20029;-83
2022/10/28 12:33:08;;;;;;;3.70;2.42;;;;;;;;;;5073359;28;20025;-85
2022/10/28 12:35:39;;;;;;;3.42;2.40;;;;;;;;;;5073531;28;20329;-84
2022/10/28 12:38:19;;;;;;;3.22;2.30;;;;;;;;;;5073444;28;20033;-84
2022/10/28 12:41:00;;;;;;;4.20;2.25;;;;;;;;;;5073284;28;20104;-85
2022/10/28 12:43:37;;;;;;;4.72;2.13;;;;;;;;;;5073162;28;20075;-84
2022/10/28 12:46:03;;;;;;;3.20;2.28;;;;;;;;;;5073212;28;20035;-85
2022/10/28 12:48:44;;;;;;;3.00;2.70;;;;;;;;;;5073255;28;20108;-80
2022/10/28 12:51:09;;;;;;;3.75;2.85;;;;;;;;;;5053309;28;20025;-84
2022/10/28 12:54:12;;;;;;;5.07;2.33;;;;;;;;;;5053029;28;20079;-84
2022/10/28 12:56:47;;;;;;;4.38;2.42;;;;;;;;;;5066126;28;20060;-81
2022/10/28 12:59:19;;;;;;;5.07;2.50;;;;;;;;;;5072997;28;20030;-81
2022/10/28 13:01:48;;;;;;;3.70;2.20;;;;;;;;;;5069977;28;20039;-82
2022/10/28 13:04:14;;;;;;;4.25;2.00;;;;;;;;;;5065770;28;20099;-81
2022/10/28 13:06:48;;;;;;;2.42;1.98;;;;;;;;;;5066797;28;20017;-81
2022/10/28 13:09:23;;;;;;;3.08;2.13;;;;;;;;;;5073031;28;20024;-81
2022/10/28 13:12:00;;;;;;;4.90;2.25;;;;;;;;;;5066621;28;20542;-82
2022/10/28 13:14:47;;;;;;;6.13;2.30;;;;;;;;;;5072995;28;20077;-81
2022/10/28 13:17:51;;;;;;;2.63;2.08;;;;;;;;;;5072901;28;20020;-81
2022/10/28 13:20:41;;;;;;;3.25;2.40;;;;;;;;;;5070747;28;20036;-83
2022/10/28 13:23:14;;;;;;;3.03;1.98;;;;;;;;;;5073168;28;20024;-81
2022/10/28 13:26:30;;;;;;;3.72;2.30;;;;;;;;;;5072932;28;20032;-81
2022/10/28 13:29:01;;;;;;;3.55;2.70;;;;;;;;;;5072535;28;20033;-81
2022/10/28 13:31:42;;;;;;;2.75;2.10;;;;;;;;;;5072599;28;20020;-81
2022/10/28 13:34:10;;;;;;;2.33;2.00;;;;;;;;;;5072857;28;20021;-81
2022/10/28 13:36:42;;;;;;;3.92;2.17;;;;;;;;;;5066112;28;20024;-81
2022/10/28 13:39:32;;;;;;;2.58;2.00;;;;;;;;;;5073019;28;20063;-81
2022/10/28 13:42:18;;;;;;;3.08;2.17;;;;;;;;;;5071570;28;20487;-80
2022/10/28 13:44:47;;;;;;;6.15;2.15;;;;;;;;;;5072442;28;20033;-80
2022/10/28 13:47:13;;;;;;;5.07;2.10;;;;;;;;;;5072670;28;20099;-81
2022/10/28 13:50:04;;;;;;;3.90;2.15;;;;;;;;;;5072638;28;20071;-81
2022/10/28 13:52:30;;;;;;;4.20;2.35;;;;;;;;;;5075282;28;20032;-81
2022/10/28 13:54:58;;;;;;;4.15;2.72;;;;;;;;;;5076037;28;20578;-81
2022/10/28 13:57:24;;;;;;;6.17;2.37;;;;;;;;;;5076178;28;20020;-81
2022/10/28 13:59:55;;;;;;;2.55;2.17;;;;;;;;;;5076167;28;20658;-81
2022/10/28 14:02:28;;;;;;;2.97;2.08;;;;;;;;;;5075935;28;20558;-81
2022/10/28 14:05:00;;;;;;;2.78;2.30;;;;;;;;;;5076126;28;20055;-81
2022/10/28 14:07:30;;;;;;;3.83;2.25;;;;;;;;;;5076236;28;20099;-81
2022/10/28 14:10:21;;;;;;;2.60;2.10;;;;;;;;;;5070857;28;20024;-81
2022/10/28 14:12:51;;;;;;;4.00;2.58;;;;;;;;;;5053826;28;20067;-81
2022/10/28 14:15:24;;;;;;;5.32;2.50;;;;;;;;;;5056000;28;20025;-81
2022/10/28 14:17:56;;;;;;;2.83;2.10;;;;;;;;;;5055975;28;20021;-82
2022/10/28 14:20:32;;;;;;;3.30;2.15;;;;;;;;;;5054277;28;20071;-81
2022/10/28 14:22:58;;;;;;;4.10;2.30;;;;;;;;;;5054503;28;20029;-81
2022/10/28 14:25:39;;;;;;;3.60;2.42;;;;;;;;;;5063695;28;20031;-81
2022/10/28 14:28:28;;;;;;;4.20;2.30;;;;;;;;;;5069968;28;20471;-82
2022/10/28 14:31:10;;;;;;;4.40;2.90;;;;;;;;;;5064711;28;20085;-81
2022/10/28 14:33:45;;;;;;;4.30;2.50;;;;;;;;;;5075621;28;20724;-82
2022/10/28 14:36:16;;;;;;;5.68;2.40;;;;;;;;;;5075607;28;20055;-82
2022/10/28 14:38:53;;;;;;;3.25;1.90;;;;;;;;;;5075308;28;20177;-81
2022/10/28 14:41:24;;;;;;;2.97;1.85;;;;;;;;;;5075246;28;20542;-81
2022/10/28 14:43:56;;;;;;;5.75;2.00;;;;;;;;;;5075454;28;20427;-82
2022/10/28 14:46:32;;;;;;;3.47;1.83;;;;;;;;;;5075469;28;20025;-81
2022/10/28 14:49:01;;;;;;;3.75;2.35;;;;;;;;;;5072577;28;20032;-82
2022/10/28 14:51:35;;;;;;;2.43;2.10;;;;;;;;;;5064542;28;20107;-81
2022/10/28 14:54:05;;;;;;;2.67;2.13;;;;;;;;;;5060101;28;20041;-82
2022/10/28 14:56:31;;;;;;;3.38;2.50;;;;;;;;;;5055254;28;20018;-81
2022/10/28 14:59:03;;;;;;;2.90;1.95;;;;;;;;;;5055074;28;20070;-82
2022/10/28 15:01:49;;;;;;;4.95;2.40;;;;;;;;;;5070121;28;20028;-81
2022/10/28 15:04:16;;;;;;;2.72;2.15;;;;;;;;;;5075012;28;20044;-82
2022/10/28 15:06:45;;;;;;;3.60;2.45;;;;;;;;;;5074915;28;20029;-81
2022/10/28 15:09:29;;;;;;;2.50;2.30;;;;;;;;;;5074879;28;20021;-82
2022/10/28 15:11:57;;;;;;;4.28;2.33;;;;;;;;;;5070507;28;20017;-81
2022/10/28 15:14:37;;;;;;;2.47;2.22;;;;;;;;;;5066223;28;20013;-80
2022/10/28 15:17:33;;;;;;;2.08;1.80;;;;;;;;;;5057383;28;20045;-82
2022/10/28 15:19:59;;;;;;;8.30;5.00;;;;;;;;;;5057731;28;20634;-82
2022/10/28 15:22:31;;;;;;;7.45;5.07;;;;;;;;;;5061945;28;20070;-82
2022/10/28 15:25:20;;;;;;;9.00;5.28;;;;;;;;;;5074319;28;20506;-82